Time;durP1;ratioP1;P1;durP2;ratioP2;P2;SDS_P1;SDS_P2;PMS_P1;PMS_P2;Temp;Humidity;BMP_temperature;BMP_pressure;BME280_temperature;BME280_humidity;BME280_pressure;Samples;Min_cycle;Max_cycle;Signal;HPM_P1;HPM_P2
2022/03/30 00:00:42;;;;;;;26.55;14.63;;;;;;;8.78;65.69;96844.13;4922785;29;20039;-86
2022/03/30 00:03:08;;;;;;;30.90;14.57;;;;;;;8.74;65.40;96838.13;4908884;29;20028;-85
2022/03/30 00:05:33;;;;;;;32.42;15.07;;;;;;;8.75;65.42;96839.00;4905682;29;20111;-86
2022/03/30 00:07:59;;;;;;;27.42;13.98;;;;;;;8.70;65.59;96847.31;4926266;29;20106;-85
2022/03/30 00:10:25;;;;;;;31.33;15.38;;;;;;;8.69;65.31;96837.59;4890083;29;20131;-85
2022/03/30 00:13:23;;;;;;;34.63;16.05;;;;;;;8.59;65.58;96828.50;4901770;29;20042;-85
2022/03/30 00:15:49;;;;;;;43.38;17.35;;;;;;;8.82;65.53;96842.97;4910566;29;20488;-85
2022/03/30 00:18:15;;;;;;;34.83;16.27;;;;;;;8.69;65.32;96800.28;4912775;29;20039;-85
2022/03/30 00:20:41;;;;;;;34.15;16.83;;;;;;;8.79;65.40;96816.53;4909891;29;20016;-86
2022/03/30 00:23:07;;;;;;;29.98;14.93;;;;;;;8.85;65.37;96818.78;4909933;29;20111;-85
2022/03/30 00:25:33;;;;;;;33.90;16.80;;;;;;;8.87;65.29;96820.38;4904133;29;20050;-85
2022/03/30 00:27:59;;;;;;;30.63;14.05;;;;;;;8.87;64.67;96832.84;4925733;29;20039;-86
2022/03/30 00:30:24;;;;;;;29.63;14.07;;;;;;;8.76;64.90;96806.06;4895524;29;20028;-86
2022/03/30 00:32:50;;;;;;;28.13;15.18;;;;;;;8.70;65.02;96802.00;4913340;29;20032;-85
2022/03/30 00:35:16;;;;;;;31.15;15.45;;;;;;;8.82;64.58;96803.84;4924525;29;20028;-85
2022/03/30 00:37:42;;;;;;;26.02;14.27;;;;;;;8.82;65.28;96819.84;4895564;29;20039;-86
2022/03/30 00:40:12;;;;;;;37.47;13.90;;;;;;;8.94;64.46;96835.03;4905089;29;20020;-86
2022/03/30 00:42:37;;;;;;;30.75;14.48;;;;;;;8.92;64.55;96826.25;4890011;29;20032;-85
2022/03/30 00:45:12;;;;;;;30.58;14.63;;;;;;;9.00;64.34;96823.09;4925396;29;20034;-85
2022/03/30 00:47:38;;;;;;;24.27;14.55;;;;;;;8.86;64.82;96794.66;4900861;29;20036;-84
2022/03/30 00:50:06;;;;;;;26.95;15.13;;;;;;;9.00;64.77;96826.59;4891579;29;20028;-85
2022/03/30 00:52:32;;;;;;;26.23;13.88;;;;;;;8.85;64.60;96792.13;4897275;29;20518;-86
2022/03/30 00:54:58;;;;;;;27.60;14.80;;;;;;;8.68;65.03;96779.91;4906675;29;20118;-86
2022/03/30 00:57:24;;;;;;;28.15;14.70;;;;;;;8.69;65.36;96797.59;4901025;29;20036;-85
2022/03/30 00:59:51;;;;;;;27.67;15.35;;;;;;;8.63;65.74;96793.53;4920544;29;20112;-85
2022/03/30 01:02:17;;;;;;;31.55;15.43;;;;;;;8.66;66.12;96808.47;4887582;29;20051;-85
2022/03/30 01:04:47;;;;;;;36.90;15.65;;;;;;;8.65;66.43;96815.63;4908477;29;20028;-85
2022/03/30 01:07:14;;;;;;;27.13;15.20;;;;;;;8.66;66.57;96813.81;4902641;29;20059;-85
2022/03/30 01:09:42;;;;;;;33.92;15.38;;;;;;;8.58;66.49;96797.47;4907513;29;20042;-84
2022/03/30 01:12:10;;;;;;;33.22;14.63;;;;;;;8.42;67.05;96775.44;4909198;29;20028;-85
2022/03/30 01:14:36;;;;;;;29.67;14.45;;;;;;;8.52;66.95;96804.03;4940918;29;20547;-86
2022/03/30 01:17:03;;;;;;;31.30;14.77;;;;;;;8.43;66.82;96787.84;4908863;29;20042;-85
2022/03/30 01:19:29;;;;;;;31.23;15.70;;;;;;;8.57;66.64;96803.75;4909023;29;20095;-86
2022/03/30 01:21:55;;;;;;;30.65;15.00;;;;;;;8.41;67.27;96779.06;4925970;29;20139;-85
2022/03/30 01:24:21;;;;;;;35.13;15.60;;;;;;;8.46;67.00;96798.28;4923147;29;20058;-86
2022/03/30 01:26:46;;;;;;;32.38;14.55;;;;;;;8.23;67.81;96790.88;4893482;29;20087;-84
2022/03/30 01:34:42;;;;;;;34.38;14.10;;;;;;;8.46;67.55;96784.97;4930595;29;20074;-86
2022/03/30 01:37:09;;;;;;;26.13;13.27;;;;;;;8.37;67.48;96769.56;4918832;29;20039;-85
2022/03/30 01:39:35;;;;;;;32.15;15.00;;;;;;;8.41;67.62;96782.59;4891509;29;20110;-85
2022/03/30 01:42:01;;;;;;;28.85;14.80;;;;;;;8.43;67.71;96791.31;4894063;29;20071;-85
2022/03/30 01:44:27;;;;;;;27.40;13.98;;;;;;;8.33;67.80;96786.72;4894537;29;20071;-86
2022/03/30 01:46:52;;;;;;;27.58;14.35;;;;;;;8.32;67.60;96801.84;4907062;29;20047;-85
2022/03/30 01:49:21;;;;;;;32.88;14.75;;;;;;;8.33;68.54;96800.03;4916135;29;20059;-86
2022/03/30 01:51:52;;;;;;;29.77;14.68;;;;;;;8.35;67.61;96771.47;4900901;29;20034;-85
2022/03/30 01:54:20;;;;;;;26.25;13.98;;;;;;;8.45;68.17;96792.09;4909238;29;20039;-86
2022/03/30 01:56:47;;;;;;;35.10;13.45;;;;;;;8.50;68.38;96819.28;4895872;29;20032;-85
2022/03/30 01:59:13;;;;;;;26.95;13.40;;;;;;;8.38;68.27;96788.13;4894499;29;20095;-85
2022/03/30 02:01:40;;;;;;;29.60;14.45;;;;;;;8.38;68.25;96798.78;4901539;29;20036;-85
2022/03/30 02:04:08;;;;;;;29.02;15.38;;;;;;;8.23;68.38;96789.09;4894162;29;20024;-86
2022/03/30 02:06:35;;;;;;;27.90;15.68;;;;;;;8.22;68.36;96792.69;4927409;29;20519;-85
2022/03/30 02:09:01;;;;;;;34.85;17.10;;;;;;;8.35;68.97;96830.09;4914212;29;20063;-85
2022/03/30 02:11:27;;;;;;;31.17;15.55;;;;;;;8.27;68.83;96817.25;4913948;29;20071;-85
2022/03/30 02:13:53;;;;;;;36.03;15.48;;;;;;;8.11;68.91;96790.75;4909834;29;20064;-85
2022/03/30 02:23:02;;;;;;;29.63;15.25;;;;;;;7.98;69.29;96765.84;4945444;29;20054;-85
2022/03/30 02:25:28;;;;;;;33.25;13.52;;;;;;;8.15;68.53;96770.91;4895681;29;20521;-84
2022/03/30 02:27:53;;;;;;;36.70;14.43;;;;;;;8.31;68.29;96781.47;4911059;29;20066;-84
2022/03/30 02:30:20;;;;;;;28.55;13.73;;;;;;;8.53;67.91;96805.75;4888589;29;20072;-84
2022/03/30 02:32:47;;;;;;;33.38;13.98;;;;;;;8.21;68.68;96774.16;4885794;29;20046;-84
2022/03/30 02:35:12;;;;;;;35.55;14.50;;;;;;;8.16;69.26;96793.94;4922409;29;20051;-86
2022/03/30 02:37:38;;;;;;;37.83;14.25;;;;;;;7.99;70.02;96775.56;4904523;29;20031;-85
2022/03/30 02:40:04;;;;;;;32.22;14.80;;;;;;;8.23;69.99;96802.41;4913981;29;20038;-84
2022/03/30 02:42:30;;;;;;;31.10;14.63;;;;;;;8.18;69.39;96781.38;4912194;29;20038;-86
2022/03/30 02:44:56;;;;;;;32.38;14.70;;;;;;;8.34;69.33;96804.38;4919650;29;20036;-85
2022/03/30 02:48:17;;;;;;;31.83;14.00;;;;;;;8.32;69.45;96811.63;4920640;29;20059;-85
2022/03/30 02:50:07;;;;;;;42.85;14.15;;;;;;;8.20;70.31;96802.59;4928365;29;20118;-85
2022/03/30 02:52:33;;;;;;;30.85;13.63;;;;;;;8.29;70.30;96817.16;4906678;29;20031;-77
2022/03/30 02:54:58;;;;;;;34.92;13.70;;;;;;;8.29;70.06;96822.50;4922956;29;20044;-86
2022/03/30 02:57:24;;;;;;;29.48;13.65;;;;;;;8.24;69.60;96805.94;4920847;29;20106;-85
2022/03/30 02:59:50;;;;;;;25.95;12.77;;;;;;;8.19;69.64;96811.53;4923785;29;20045;-86
2022/03/30 03:02:15;;;;;;;30.35;13.35;;;;;;;8.15;70.36;96805.53;4900515;29;20027;-85
2022/03/30 03:04:41;;;;;;;24.90;12.13;;;;;;;8.16;69.71;96801.06;4907037;29;20063;-86
2022/03/30 03:07:07;;;;;;;28.55;13.18;;;;;;;8.12;70.17;96803.09;4895881;29;20404;-86
2022/03/30 03:12:17;;;;;;;23.55;13.73;;;;;;;8.03;70.71;96795.69;4938386;29;20034;-85
2022/03/30 03:14:42;;;;;;;26.27;12.55;;;;;;;8.09;70.59;96805.94;4911087;29;20032;-85
2022/03/30 03:17:08;;;;;;;31.83;13.82;;;;;;;8.14;70.68;96801.19;4930782;29;20100;-85
2022/03/30 03:19:33;;;;;;;29.75;12.95;;;;;;;8.21;70.47;96784.81;4907270;29;20031;-84
2022/03/30 03:21:59;;;;;;;29.55;11.57;;;;;;;8.16;70.94;96801.94;4902961;29;20211;-85
2022/03/30 03:24:24;;;;;;;31.08;14.77;;;;;;;8.18;70.96;96808.00;4891210;29;20028;-87
2022/03/30 03:26:51;;;;;;;27.80;13.88;;;;;;;8.08;70.54;96790.94;4926905;29;20028;-87
2022/03/30 03:29:17;;;;;;;30.50;13.60;;;;;;;8.11;70.69;96787.22;4908518;29;20072;-86
2022/03/30 03:31:42;;;;;;;35.55;13.82;;;;;;;8.13;70.60;96783.50;4892526;29;20028;-86
2022/03/30 03:34:08;;;;;;;39.00;14.43;;;;;;;8.16;70.81;96782.44;4893850;29;20036;-85
2022/03/30 03:36:34;;;;;;;28.92;14.27;;;;;;;8.01;71.46;96781.63;4923284;29;20027;-88
2022/03/30 03:39:00;;;;;;;30.98;15.15;;;;;;;7.98;71.07;96765.84;4902081;29;20032;-87
2022/03/30 03:41:26;;;;;;;30.63;15.25;;;;;;;8.12;71.18;96783.59;4885576;29;20127;-83
2022/03/30 03:43:52;;;;;;;36.70;14.52;;;;;;;8.17;71.36;96795.66;4901174;29;20055;-85
2022/03/30 03:46:17;;;;;;;36.55;14.43;;;;;;;8.20;70.63;96799.94;4914247;29;20036;-83
2022/03/30 03:48:43;;;;;;;30.42;13.65;;;;;;;8.29;70.09;96774.53;4885688;29;20110;-86
2022/03/30 03:51:09;;;;;;;44.30;15.57;;;;;;;8.37;70.32;96790.88;4905072;29;20405;-85
2022/03/30 03:53:35;;;;;;;30.75;14.60;;;;;;;8.44;70.04;96793.03;4913754;29;20180;-86
2022/03/30 03:56:04;;;;;;;33.83;15.10;;;;;;;8.44;70.05;96786.84;4917553;29;20115;-86
2022/03/30 03:58:30;;;;;;;37.08;16.35;;;;;;;8.45;69.54;96791.25;4911252;29;20024;-86
2022/03/30 04:00:56;;;;;;;30.55;14.65;;;;;;;8.36;69.40;96770.53;4887126;29;20036;-86
2022/03/30 04:03:21;;;;;;;34.53;12.43;;;;;;;8.58;68.62;96781.50;4910592;29;20024;-87
2022/03/30 04:05:47;;;;;;;30.27;11.48;;;;;;;8.73;68.75;96777.81;4908473;29;20028;-86
2022/03/30 04:08:15;;;;;;;38.40;17.00;;;;;;;8.85;68.11;96792.13;4913130;29;20035;-86
2022/03/30 04:10:41;;;;;;;33.85;14.23;;;;;;;8.88;67.47;96798.09;4905773;29;20036;-85
2022/03/30 04:13:07;;;;;;;30.17;13.60;;;;;;;8.86;67.17;96788.50;4884276;29;20036;-83
2022/03/30 04:15:34;;;;;;;22.95;10.68;;;;;;;8.86;67.08;96775.16;4888181;29;20044;-85
2022/03/30 04:18:00;;;;;;;52.25;19.17;;;;;;;8.97;67.39;96788.63;4925132;29;20027;-86
2022/03/30 04:20:27;;;;;;;33.70;17.90;;;;;;;8.89;67.60;96775.78;4906958;29;20047;-87
2022/03/30 04:22:52;;;;;;;46.50;19.63;;;;;;;8.91;67.02;96787.22;4902197;29;20048;-88
2022/03/30 04:25:18;;;;;;;42.63;19.17;;;;;;;8.91;67.02;96787.22;4903090;29;20058;-85
2022/03/30 04:27:48;;;;;;;37.75;17.85;;;;;;;8.90;67.85;96787.31;4913323;29;20036;-83
2022/03/30 04:30:16;;;;;;;33.70;17.75;;;;;;;8.89;67.76;96793.63;4905788;29;20496;-86
2022/03/30 04:32:42;;;;;;;47.88;20.30;;;;;;;8.82;67.63;96779.84;4906961;29;20059;-86
2022/03/30 04:35:08;;;;;;;46.95;20.60;;;;;;;8.86;67.53;96784.00;4889831;29;20127;-86
2022/03/30 04:37:34;;;;;;;42.15;20.75;;;;;;;8.87;67.46;96791.03;4887746;29;20464;-86
2022/03/30 04:40:00;;;;;;;47.88;22.80;;;;;;;8.84;67.70;96791.25;4897145;29;20024;-84
2022/03/30 04:42:26;;;;;;;54.20;23.98;;;;;;;8.93;67.60;96787.97;4919010;29;20380;-84
2022/03/30 04:44:51;;;;;;;67.30;24.70;;;;;;;8.91;66.95;96770.38;4919128;29;20119;-84
2022/03/30 04:47:17;;;;;;;37.72;19.80;;;;;;;9.25;65.63;96796.44;4902306;29;20035;-84
2022/03/30 04:49:42;;;;;;;45.72;24.52;;;;;;;9.34;65.02;96786.94;4916282;29;20035;-85
2022/03/30 04:52:09;;;;;;;58.65;25.17;;;;;;;9.51;64.87;96791.97;4890569;29;20024;-85
2022/03/30 04:54:35;;;;;;;75.25;27.98;;;;;;;10.08;63.21;96787.84;4902640;29;20039;-84
2022/03/30 04:57:00;;;;;;;57.22;28.38;;;;;;;10.43;61.30;96766.56;4888014;29;20419;-86
2022/03/30 04:59:26;;;;;;;61.80;29.90;;;;;;;10.73;59.99;96777.69;4909656;29;20032;-86
2022/03/30 05:01:52;;;;;;;65.13;27.83;;;;;;;10.73;60.39;96783.03;4891917;29;20095;-86
2022/03/30 05:04:17;;;;;;;98.13;35.40;;;;;;;10.80;59.77;96770.03;4912448;29;20031;-82
2022/03/30 05:06:43;;;;;;;110.43;36.17;;;;;;;11.19;59.72;96784.91;4922611;29;20220;-87
2022/03/30 05:09:09;;;;;;;100.05;32.20;;;;;;;11.09;59.65;96789.25;4910693;29;20544;-88
2022/03/30 05:11:34;;;;;;;106.07;30.58;;;;;;;11.65;57.96;96776.84;4926508;29;20023;-88
2022/03/30 05:14:00;;;;;;;80.85;30.02;;;;;;;11.35;59.99;96794.28;4911737;29;20051;-89
2022/03/30 05:16:26;;;;;;;92.30;29.88;;;;;;;11.55;58.52;96778.50;4910645;29;20506;-87
2022/03/30 05:18:51;;;;;;;95.82;29.63;;;;;;;11.54;58.55;96782.16;4907658;29;20123;-87
2022/03/30 05:21:17;;;;;;;80.78;26.05;;;;;;;11.77;57.41;96782.13;4907231;29;20055;-87
2022/03/30 05:23:43;;;;;;;66.28;22.25;;;;;;;12.02;58.25;96804.28;4914511;29;20024;-88
2022/03/30 05:26:08;;;;;;;73.53;25.05;;;;;;;12.37;56.25;96795.09;4894236;29;20549;-89
2022/03/30 05:28:38;;;;;;;68.57;22.33;;;;;;;12.88;54.38;96783.75;4900030;29;20108;-86
2022/03/30 05:31:05;;;;;;;72.50;22.52;;;;;;;13.34;53.16;96776.25;4889224;29;20028;-87
2022/03/30 05:33:31;;;;;;;68.50;24.25;;;;;;;14.55;51.08;96776.25;4896344;29;20032;-88
2022/03/30 05:35:56;;;;;;;68.22;23.38;;;;;;;15.69;47.42;96766.50;4903084;29;20476;-87
2022/03/30 05:38:22;;;;;;;66.80;26.00;;;;;;;16.98;44.48;96748.41;4917020;29;20059;-87
2022/03/30 05:40:48;;;;;;;62.42;25.02;;;;;;;17.93;42.47;96753.09;4902992;29;20389;-87
2022/03/30 05:43:13;;;;;;;94.05;32.78;;;;;;;18.77;40.96;96746.72;4911545;29;20051;-89
2022/03/30 05:45:39;;;;;;;82.47;32.70;;;;;;;18.59;41.00;96732.44;4905750;29;20496;-88
2022/03/30 05:48:05;;;;;;;70.53;33.25;;;;;;;19.54;39.06;96722.94;4900927;29;20039;-88
2022/03/30 05:50:30;;;;;;;95.50;33.20;;;;;;;19.91;38.65;96732.22;4921782;29;20043;-86
2022/03/30 05:52:57;;;;;;;62.17;27.48;;;;;;;20.19;38.36;96734.53;4905182;29;20184;-87
2022/03/30 05:55:22;;;;;;;68.32;25.00;;;;;;;20.69;36.53;96707.88;4905432;29;20055;-87
2022/03/30 05:57:48;;;;;;;45.72;21.42;;;;;;;21.45;35.10;96701.56;4921856;29;20476;-87
2022/03/30 06:00:14;;;;;;;36.00;13.30;;;;;;;21.97;33.75;96696.16;4905044;29;20024;-87
2022/03/30 06:02:40;;;;;;;60.08;20.90;;;;;;;22.84;33.42;96706.22;4899077;29;20033;-87
2022/03/30 06:05:06;;;;;;;59.92;22.77;;;;;;;24.01;33.62;96708.41;4902026;29;20508;-87
2022/03/30 06:07:32;;;;;;;50.08;20.90;;;;;;;24.63;31.44;96694.75;4886095;29;20032;-87
2022/03/30 06:09:58;;;;;;;66.47;25.30;;;;;;;25.20;29.74;96696.22;4901622;29;20035;-87
2022/03/30 06:12:24;;;;;;;59.00;19.63;;;;;;;24.25;30.72;96705.25;4897444;29;20008;-87
2022/03/30 06:14:51;;;;;;;47.15;15.07;;;;;;;24.46;30.83;96714.41;4904479;29;20095;-87
2022/03/30 06:17:19;;;;;;;56.65;14.45;;;;;;;24.64;30.61;96704.63;4903961;29;20445;-86
2022/03/30 06:19:49;;;;;;;30.45;11.43;;;;;;;24.05;30.80;96707.00;4892068;29;20028;-86
2022/03/30 06:22:14;;;;;;;28.77;10.55;;;;;;;25.39;29.64;96698.16;4892277;29;20536;-87
2022/03/30 06:24:41;;;;;;;23.70;11.05;;;;;;;25.15;29.16;96706.94;4904384;29;20036;-86
2022/03/30 06:27:09;;;;;;;53.85;13.85;;;;;;;26.13;28.38;96693.34;4920198;29;20123;-87
2022/03/30 06:29:42;;;;;;;47.40;14.07;;;;;;;27.40;27.27;96702.66;4903616;29;20094;-86
2022/03/30 06:32:08;;;;;;;35.40;11.90;;;;;;;28.12;25.95;96700.47;4904216;29;20408;-87
2022/03/30 06:34:35;;;;;;;41.90;12.93;;;;;;;28.26;25.81;96696.53;4892191;29;20515;-88
2022/03/30 06:37:01;;;;;;;40.35;12.15;;;;;;;27.82;25.90;96683.75;4904086;29;20420;-88
2022/03/30 06:39:26;;;;;;;41.78;13.20;;;;;;;28.23;25.40;96664.81;4904329;29;20028;-88
2022/03/30 06:41:53;;;;;;;27.08;12.48;;;;;;;26.75;26.68;96689.22;4904680;29;20488;-87
2022/03/30 06:44:18;;;;;;;40.75;13.55;;;;;;;26.44;27.36;96669.91;4902087;29;20111;-86
2022/03/30 06:46:44;;;;;;;24.52;10.93;;;;;;;26.76;26.52;96675.25;4885228;29;20032;-87
2022/03/30 06:49:10;;;;;;;34.70;13.05;;;;;;;26.65;27.35;96702.53;4916720;29;20441;-87
2022/03/30 06:51:36;;;;;;;33.40;12.90;;;;;;;26.38;27.21;96686.19;4885217;29;20382;-86
2022/03/30 06:54:02;;;;;;;41.58;15.10;;;;;;;27.72;26.22;96713.66;4885508;29;20068;-86
2022/03/30 06:56:28;;;;;;;31.38;12.70;;;;;;;27.68;25.36;96705.03;4901752;29;20066;-86
2022/03/30 06:58:54;;;;;;;48.70;17.73;;;;;;;27.83;25.88;96691.81;4902803;29;20028;-87
2022/03/30 07:01:20;;;;;;;39.78;14.20;;;;;;;26.99;26.49;96695.91;4887026;29;20035;-86
2022/03/30 07:03:46;;;;;;;31.98;12.68;;;;;;;28.12;25.04;96700.47;4905102;29;20021;-86
2022/03/30 07:06:11;;;;;;;26.55;11.90;;;;;;;27.91;24.88;96691.50;4903372;29;20035;-86
2022/03/30 07:11:22;;;;;;;34.17;13.35;;;;;;;27.97;24.77;96706.28;4921353;29;20027;-86
2022/03/30 07:13:48;;;;;;;35.63;11.00;;;;;;;28.03;24.69;96705.38;4905068;29;20084;-86
2022/03/30 07:16:14;;;;;;;55.22;9.68;;;;;;;26.93;24.71;96692.13;4889785;29;20035;-86
2022/03/30 07:18:39;;;;;;;23.73;9.05;;;;;;;27.76;23.45;96688.25;4907344;29;20032;-86
2022/03/30 07:21:05;;;;;;;27.67;8.50;;;;;;;27.23;23.89;96685.00;4906788;29;20032;-85
2022/03/30 07:23:31;;;;;;;18.02;7.68;;;;;;;27.12;24.74;96693.94;4892986;29;20064;-85
2022/03/30 07:26:00;;;;;;;23.50;9.15;;;;;;;28.45;23.61;96690.84;4891511;29;20024;-86
2022/03/30 07:28:26;;;;;;;26.48;7.90;;;;;;;28.84;22.92;96681.31;4898571;29;20028;-86
2022/03/30 07:30:53;;;;;;;34.25;9.35;;;;;;;28.43;23.23;96678.34;4927347;29;20024;-85
2022/03/30 07:33:19;;;;;;;18.48;7.53;;;;;;;28.14;22.44;96662.59;4911074;29;20035;-86
2022/03/30 07:35:47;;;;;;;20.48;7.03;;;;;;;27.66;22.42;96663.16;4911542;29;20034;-86
2022/03/30 07:38:18;;;;;;;21.02;7.55;;;;;;;26.90;23.83;96673.34;4911525;29;20036;-84
2022/03/30 07:40:45;;;;;;;23.67;7.15;;;;;;;27.82;23.31;96679.13;4906334;29;20036;-84
2022/03/30 07:43:12;;;;;;;27.92;7.25;;;;;;;28.30;22.46;96689.50;4910432;29;20032;-85
2022/03/30 07:45:38;;;;;;;21.73;7.32;;;;;;;27.91;22.64;96676.91;4922928;29;20440;-84
2022/03/30 07:48:04;;;;;;;21.00;7.05;;;;;;;27.10;23.59;96679.56;4908184;29;20035;-85
2022/03/30 07:50:30;;;;;;;25.45;6.80;;;;;;;26.37;23.92;96673.50;4925228;29;20464;-84
2022/03/30 07:52:55;;;;;;;19.33;6.30;;;;;;;27.58;22.49;96677.19;4913255;29;20032;-84
2022/03/30 07:55:21;;;;;;;24.70;6.13;;;;;;;26.11;23.86;96670.81;4910537;29;20046;-84
2022/03/30 07:57:47;;;;;;;18.95;6.78;;;;;;;25.37;24.43;96678.38;4910090;29;20495;-84
2022/03/30 08:00:18;;;;;;;32.40;6.22;;;;;;;24.47;24.54;96689.59;4909993;29;20054;-84
2022/03/30 08:02:47;;;;;;;21.80;6.03;;;;;;;25.07;24.33;96686.06;4911727;29;20570;-84
2022/03/30 08:05:14;;;;;;;17.90;6.03;;;;;;;25.31;23.43;96670.97;4926053;29;20414;-85
2022/03/30 08:07:40;;;;;;;30.83;6.22;;;;;;;25.93;22.85;96670.63;4908982;29;20032;-83
2022/03/30 08:10:08;;;;;;;15.93;6.22;;;;;;;25.92;22.62;96685.38;4910115;29;20035;-83
2022/03/30 08:12:35;;;;;;;36.38;6.78;;;;;;;25.75;23.46;96670.38;4909708;29;20487;-83
2022/03/30 08:15:01;;;;;;;20.40;6.65;;;;;;;25.41;24.05;96676.88;4909839;29;20229;-84
2022/03/30 08:17:26;;;;;;;16.38;5.80;;;;;;;26.43;22.68;96680.03;4908251;29;20027;-84
2022/03/30 08:19:52;;;;;;;24.15;5.75;;;;;;;25.74;22.86;96657.75;4909131;29;20032;-84
2022/03/30 08:22:28;;;;;;;21.02;6.78;;;;;;;25.86;23.49;96664.28;4908740;29;20047;-84
2022/03/30 08:25:07;;;;;;;19.10;5.97;;;;;;;26.24;23.67;96670.78;4911648;29;20107;-84
2022/03/30 08:27:33;;;;;;;19.27;6.63;;;;;;;26.13;23.57;96679.66;4929415;29;20030;-85
2022/03/30 08:29:59;;;;;;;30.08;6.55;;;;;;;26.88;22.84;96642.53;4913315;29;20027;-84
2022/03/30 08:32:26;;;;;;;17.90;5.60;;;;;;;27.74;21.84;96654.66;4911351;29;20110;-84
2022/03/30 08:34:54;;;;;;;27.85;7.25;;;;;;;26.09;23.22;96661.09;4910507;29;20051;-84
2022/03/30 08:37:20;;;;;;;22.75;6.75;;;;;;;27.59;21.91;96645.91;4924294;29;20028;-85
2022/03/30 08:39:46;;;;;;;20.73;6.40;;;;;;;28.34;21.69;96644.78;4909198;29;20035;-87
2022/03/30 08:42:17;;;;;;;20.98;6.60;;;;;;;27.69;21.93;96654.47;4907512;29;20028;-86
2022/03/30 08:44:43;;;;;;;18.45;6.43;;;;;;;28.35;21.88;96642.88;4894962;29;20039;-84
2022/03/30 08:47:11;;;;;;;21.80;6.95;;;;;;;28.07;22.15;96626.03;4904589;29;20034;-86
2022/03/30 08:49:37;;;;;;;19.58;6.50;;;;;;;27.50;22.49;96636.25;4888270;29;20039;-85
2022/03/30 08:52:05;;;;;;;16.95;6.95;;;;;;;27.74;22.08;96626.34;4904293;29;20024;-86
2022/03/30 08:54:31;;;;;;;16.30;7.18;;;;;;;28.80;21.06;96635.16;4903410;29;20032;-85
2022/03/30 08:56:57;;;;;;;20.92;7.43;;;;;;;28.92;20.69;96598.34;4887344;29;20464;-84
2022/03/30 08:59:24;;;;;;;17.73;6.90;;;;;;;28.95;20.18;96630.09;4892362;29;20056;-86
2022/03/30 09:01:52;;;;;;;15.30;7.47;;;;;;;28.47;20.64;96611.63;4893464;29;20039;-85
2022/03/30 09:04:19;;;;;;;19.77;7.03;;;;;;;29.07;20.31;96620.00;4891468;29;20032;-85
2022/03/30 09:06:50;;;;;;;23.35;7.45;;;;;;;28.74;20.45;96601.16;4891301;29;20042;-85
2022/03/30 09:09:18;;;;;;;19.00;6.90;;;;;;;27.50;21.41;96635.41;4890371;29;20179;-85
2022/03/30 09:11:53;;;;;;;28.52;6.90;;;;;;;25.84;23.06;96606.13;4894559;29;20035;-84
2022/03/30 09:14:20;;;;;;;18.95;6.70;;;;;;;24.20;24.67;96614.81;4911865;29;20028;-84
2022/03/30 09:16:48;;;;;;;21.98;7.22;;;;;;;25.43;24.20;96619.16;4891492;29;20032;-85
2022/03/30 09:19:16;;;;;;;18.20;6.40;;;;;;;26.25;23.21;96619.53;4895015;29;20024;-86
2022/03/30 09:21:50;;;;;;;18.38;6.57;;;;;;;27.06;22.46;96656.38;4892302;29;20047;-84
2022/03/30 09:24:23;;;;;;;32.05;6.45;;;;;;;27.77;21.88;96639.63;4886995;29;20461;-85
2022/03/30 09:26:51;;;;;;;22.98;6.90;;;;;;;27.50;22.65;96629.91;4905246;29;20029;-84
2022/03/30 09:29:19;;;;;;;23.98;8.07;;;;;;;26.58;22.91;96633.16;4886348;29;20508;-84
2022/03/30 09:31:47;;;;;;;27.75;7.50;;;;;;;27.50;22.22;96614.28;4886054;29;20048;-84
2022/03/30 09:34:12;;;;;;;20.88;7.68;;;;;;;28.77;21.24;96606.19;4886389;29;20034;-84
2022/03/30 09:36:40;;;;;;;19.40;7.07;;;;;;;28.43;21.33;96607.66;4886605;29;20032;-85
2022/03/30 09:39:09;;;;;;;15.63;6.93;;;;;;;27.82;21.80;96601.28;4886841;29;20123;-84
2022/03/30 09:41:46;;;;;;;15.77;6.47;;;;;;;27.02;22.48;96610.34;4898634;29;20039;-85
2022/03/30 09:44:12;;;;;;;22.35;7.30;;;;;;;27.45;21.99;96586.63;4923608;29;20016;-84
2022/03/30 09:46:58;;;;;;;33.90;8.40;;;;;;;28.62;20.88;96596.63;4921654;29;20023;-84
2022/03/30 09:49:41;;;;;;;12.13;7.32;;;;;;;28.06;20.89;96594.09;4904998;29;20023;-85
2022/03/30 09:52:23;;;;;;;19.38;7.03;;;;;;;27.27;21.69;96595.59;4906034;29;20038;-86
2022/03/30 09:54:49;;;;;;;26.60;8.50;;;;;;;28.43;21.01;96587.53;4904750;29;20059;-85
2022/03/30 09:57:24;;;;;;;18.92;8.27;;;;;;;28.44;20.09;96573.56;4920722;29;20034;-85
2022/03/30 10:00:10;;;;;;;17.05;8.00;;;;;;;28.63;20.03;96574.38;4920832;29;20028;-84
2022/03/30 10:02:43;;;;;;;18.48;7.07;;;;;;;28.38;20.31;96566.22;4893792;29;20373;-85
2022/03/30 10:05:12;;;;;;;22.38;8.20;;;;;;;27.78;20.92;96578.91;4885780;29;20028;-84
2022/03/30 10:07:38;;;;;;;23.90;8.32;;;;;;;27.33;21.05;96580.97;4900861;29;20032;-84
2022/03/30 10:10:06;;;;;;;19.63;8.90;;;;;;;27.25;20.92;96570.28;4897048;29;20038;-85
2022/03/30 10:12:32;;;;;;;15.35;8.32;;;;;;;28.15;19.77;96552.31;4896546;29;20067;-86
2022/03/30 10:14:59;;;;;;;16.40;7.85;;;;;;;28.07;19.93;96538.88;4884479;29;20062;-85
2022/03/30 10:17:26;;;;;;;27.13;9.43;;;;;;;27.27;20.63;96526.94;4887964;29;20415;-84
2022/03/30 10:19:55;;;;;;;19.75;9.30;;;;;;;26.76;21.28;96539.97;4920181;29;20040;-85
2022/03/30 10:22:24;;;;;;;17.30;7.35;;;;;;;26.81;20.63;96541.00;4893797;29;20420;-84
2022/03/30 10:25:09;;;;;;;22.10;7.88;;;;;;;27.42;20.58;96540.31;4919617;29;20038;-85
2022/03/30 10:27:50;;;;;;;16.83;8.20;;;;;;;27.53;20.58;96533.31;4908847;29;20043;-84
2022/03/30 10:30:23;;;;;;;13.52;7.32;;;;;;;28.47;19.36;96518.06;4901414;29;20495;-85
2022/03/30 10:32:55;;;;;;;14.55;7.38;;;;;;;28.51;19.23;96507.44;4886957;29;20088;-85
2022/03/30 10:35:20;;;;;;;20.00;7.43;;;;;;;28.32;19.72;96503.88;4885763;29;20084;-85
2022/03/30 10:37:57;;;;;;;15.40;7.43;;;;;;;27.56;20.62;96524.59;4908438;29;20099;-85
2022/03/30 10:40:25;;;;;;;18.02;7.43;;;;;;;27.23;21.34;96517.44;4892066;29;20039;-84
2022/03/30 10:42:54;;;;;;;17.67;7.72;;;;;;;28.46;19.86;96505.38;4910464;29;20032;-85
2022/03/30 10:45:28;;;;;;;21.40;7.72;;;;;;;28.51;19.06;96494.50;4918965;29;20034;-85
2022/03/30 10:48:14;;;;;;;11.05;6.30;;;;;;;27.63;19.62;96471.25;4911848;29;20419;-85
2022/03/30 10:50:58;;;;;;;16.35;6.80;;;;;;;27.22;19.63;96485.59;4916838;29;20028;-84
2022/03/30 10:53:33;;;;;;;17.23;6.78;;;;;;;26.88;19.91;96483.34;4916842;29;20488;-85
2022/03/30 10:56:14;;;;;;;20.48;6.90;;;;;;;26.72;20.27;96487.41;4900474;29;20520;-84
2022/03/30 10:59:03;;;;;;;12.27;7.40;;;;;;;26.21;20.82;96482.00;4900151;29;20044;-85
2022/03/30 11:01:33;;;;;;;20.10;6.75;;;;;;;26.02;21.57;96482.94;4899739;29;20572;-77
2022/03/30 11:04:02;;;;;;;12.75;6.30;;;;;;;26.05;21.13;96468.81;4896926;29;20040;-79
2022/03/30 11:06:31;;;;;;;23.27;6.57;;;;;;;26.10;21.23;96468.13;4893312;29;20055;-82
2022/03/30 11:08:58;;;;;;;9.95;5.68;;;;;;;26.31;21.19;96465.94;4879958;29;20389;-79
2022/03/30 11:11:57;;;;;;;13.13;6.63;;;;;;;26.29;21.38;96468.06;4895903;29;20139;-79
2022/03/30 11:14:33;;;;;;;20.55;6.53;;;;;;;27.84;20.56;96472.72;4903932;29;20432;-78
2022/03/30 11:17:03;;;;;;;21.50;6.57;;;;;;;29.15;19.63;96448.84;4892854;29;20035;-77
2022/03/30 11:19:57;;;;;;;14.18;6.00;;;;;;;29.96;18.53;96456.28;4884988;29;20044;-77
2022/03/30 11:22:29;;;;;;;16.85;5.65;;;;;;;29.04;19.10;96461.50;4910471;29;20058;-76
2022/03/30 11:25:05;;;;;;;;;;;;;;;28.55;19.30;96453.56;4913875;29;20495;-78
2022/03/30 11:27:30;;;;;;;15.73;6.03;;;;;;;27.74;19.93;96439.41;4900136;29;19915;-78
2022/03/30 11:29:58;;;;;;;11.75;5.55;;;;;;;28.42;19.49;96448.28;4898087;29;20039;-78
2022/03/30 11:32:23;;;;;;;26.17;6.38;;;;;;;27.83;19.81;96447.13;4884874;29;20042;-78
2022/03/30 11:35:04;;;;;;;12.70;6.00;;;;;;;28.14;19.85;96435.13;4920305;29;20115;-78
2022/03/30 11:37:35;;;;;;;14.10;6.22;;;;;;;27.82;20.30;96434.44;4898110;29;20035;-78
2022/03/30 11:40:04;;;;;;;15.00;6.20;;;;;;;27.29;20.72;96420.41;4888831;29;20390;-77
2022/03/30 11:42:30;;;;;;;14.40;6.55;;;;;;;27.26;20.87;96420.88;4895275;29;20039;-77
2022/03/30 11:45:14;;;;;;;11.05;5.60;;;;;;;26.73;21.42;96404.00;4895380;29;20063;-76